Flight Track Log - Related Links

Times and Time Zones

All times are in EDT time to prevent confusion due to time zone crossing. See the C-GONN flight status page for this flight to view local times or setup timezone preferences in your user account.

Time Position Orientation Groundspeed Altitude Reporting Facility
EDT Latitude Longitude Course Direction KTS MPH feet Rate Location/Type
Tue 05:21:09 PM 50.6667 -120.3500 219° Southwest 140 161 3,700  Level Vancouver Center
Tue 05:22:09 PM 50.6500 -120.3167 128° Southeast 130 150 5,200 1,450 Climbing Vancouver Center
Tue 05:23:09 PM 50.6167 -120.3833 232° Southwest 130 150 6,600 1,400 Climbing Vancouver Center
Tue 05:24:09 PM 50.5833 -120.4000 198° South 130 150 8,000 1,400 Climbing Vancouver Center
Tue 05:25:09 PM 50.5667 -120.4667 249° West 140 161 9,400 1,200 Climbing Vancouver Center
Tue 05:26:00 PM 50.3792 -120.8802 219° Southwest  Level FlightAware Approximate
Tue 05:26:09 PM 50.5500 -120.5167 242° Southwest 160 184 10,400  Level Vancouver Center
Tue 05:27:09 PM 50.5000 -120.5667 212° Southwest 170 196 11,400 1,150 Climbing Vancouver Center
Tue 05:28:09 PM 50.4667 -120.6167 224° Southwest 180 207 12,700 1,250 Climbing Vancouver Center
Tue 05:29:09 PM 50.4333 -120.6833 232° Southwest 180 207 13,900 650 Climbing Vancouver Center
Tue 05:30:09 PM 50.3833 -120.7333 213° Southwest 200 230 14,000 50 Climbing Vancouver Center
Tue 05:31:09 PM 50.3333 -120.8167 227° Southwest 230 265 14,000  Level Vancouver Center
Tue 05:32:09 PM 50.2833 -120.8667 213° Southwest 240 276 14,000  Level Vancouver Center
Tue 05:33:09 PM 50.2333 -120.9500 227° Southwest 250 288 14,000  Level Vancouver Center
Tue 05:34:09 PM 50.1833 -121.0333 227° Southwest 250 288 14,000  Level Vancouver Center
Tue 05:35:09 PM 50.1333 -121.1167 227° Southwest 250 288 14,000  Level Vancouver Center
Tue 05:36:09 PM 50.1000 -121.2000 238° Southwest 250 288 14,000  Level Vancouver Center
Tue 05:37:09 PM 50.0500 -121.2500 213° Southwest 250 288 14,000  Level Vancouver Center
Tue 05:38:09 PM 50.0000 -121.3333 227° Southwest 250 288 14,000  Level Vancouver Center
Tue 05:39:09 PM 49.9500 -121.4167 227° Southwest 250 288 14,000  Level Vancouver Center
Tue 05:40:09 PM 49.9000 -121.5000 227° Southwest 240 276 14,000  Level Vancouver Center
Tue 05:41:09 PM 49.8500 -121.5667 221° Southwest 240 276 14,000  Level Vancouver Center
Tue 05:42:09 PM 49.8167 -121.6500 238° Southwest 240 276 14,000  Level Vancouver Center
Tue 05:43:09 PM 49.7667 -121.7333 227° Southwest 230 265 14,000  Level Vancouver Center
Tue 05:44:09 PM 49.7167 -121.7833 213° Southwest 240 276 14,000  Level Vancouver Center
Tue 05:45:09 PM 49.6667 -121.8667 227° Southwest 230 265 14,000  Level Vancouver Center
Tue 05:46:09 PM 49.6333 -121.9500 238° Southwest 240 276 14,000  Level Vancouver Center
Tue 05:47:09 PM 49.6000 -122.0167 232° Southwest 230 265 14,000 -50 Level Vancouver Center
Tue 05:48:09 PM 49.5500 -122.1000 227° Southwest 230 265 13,900 -700 Descending Vancouver Center
Tue 05:49:09 PM 49.5000 -122.1500 213° Southwest 250 288 12,600 -1,250 Descending Vancouver Center
Tue 05:50:09 PM 49.4500 -122.2333 227° Southwest 250 288 11,400 -1,250 Descending Vancouver Center
Tue 05:51:09 PM 49.4000 -122.3167 227° Southwest 240 276 10,100 -700 Descending Vancouver Center
Tue 05:52:09 PM 49.3667 -122.3833 232° Southwest 230 265 10,000 -50 Descending Vancouver Center
Tue 05:53:09 PM 49.3333 -122.4667 238° Southwest 220 253 10,000  Level Vancouver Center
Tue 05:54:09 PM 49.3000 -122.5667 243° Southwest 220 253 10,000  Level Vancouver Center
Tue 05:55:09 PM 49.2667 -122.6500 239° Southwest 220 253 10,000  Level Vancouver Center
Tue 05:56:09 PM 49.2500 -122.7333 253° West 210 242 10,000  Level Vancouver Center
Tue 05:57:09 PM 49.2333 -122.8000 249° West 210 242 10,000  Level Vancouver Center
Tue 05:58:09 PM 49.2167 -122.9000 256° West 210 242 10,000  Level Vancouver Center
Tue 05:59:09 PM 49.2333 -122.9833 287° West 220 253 10,000 -500 Level Vancouver Center
Tue 06:00:09 PM 49.2500 -123.0833 284° West 230 265 9,000 -1,400 Descending Vancouver Center
Tue 06:01:09 PM 49.2500 -123.1833 270° West 240 276 7,200 -1,800 Descending Vancouver Center
Tue 06:02:09 PM 49.2667 -123.2833 284° West 250 288 5,400 -1,800 Descending Vancouver Center
Tue 06:03:09 PM 49.2667 -123.3833 270° West 230 265 3,600 -1,500 Descending Vancouver Center
Tue 06:04:09 PM 49.2500 -123.4667 253° West 210 242 2,400 -800 Descending Vancouver Center
Tue 06:05:09 PM 49.2167 -123.4167 136° Southeast 170 196 2,000 -200 Descending Vancouver Center
Tue 06:06:09 PM 49.2000 -123.3333 107° East 160 184 2,000 -350 Level Vancouver Center
Tue 06:07:09 PM 49.2000 -123.2833 90° East 120 138 1,300 -650 Descending Vancouver Center
Tue 06:08:09 PM 49.1833 -123.2333 117° Southeast 120 138 700 -600 Descending Vancouver Center
Tue 06:09:09 PM 49.1833 -123.1833 90° East 110 127 100 -600 Descending Vancouver Center

Login

Don't have an account? Register now (free) for customized features, flight alerts, and more!